• Join FlightAware (Why Join?)
  • Login
  • US Flag 
11:20AM EST


 

Airport Tracker/Info


-or-


 

Live Flight TrackerFlight Track Log ✈ TYR850 ✈ 24-Apr-2013 ✈ LATI / TIA - LOWW / VIE

Flight Track Log - Related Links

Times and Time Zones

All times are in EDT time to prevent confusion due to time zone crossing. See the TYR850 flight status page for this flight to view local times or setup timezone preferences in your user account.

Time Position Orientation Groundspeed Altitude Reporting Facility
EDT Latitude Longitude Course Direction KTS MPH feet Rate Location/Type
10:35PM 41.8518 19.5368 343° North  Level Estimated
10:36PM 41.9392 19.4998 342° North  Level Estimated
10:37PM 42.0266 19.4627 342° North  Level Estimated
10:38PM 42.1139 19.4254 342° North  Level Estimated
10:39PM 42.2013 19.3881 342° North  Level Estimated
10:40PM 42.2886 19.3506 342° North  Level Estimated
10:41PM 42.3759 19.3131 342° North  Level Estimated
10:42PM 42.4632 19.2754 342° North  Level Estimated
10:43PM 42.5505 19.2376 342° North  Level Estimated
10:44PM 42.6378 19.1998 342° North  Level Estimated
10:45PM 42.7251 19.1618 342° North  Level Estimated
10:46PM 42.8123 19.1237 342° North  Level Estimated
10:47PM 42.8996 19.0855 342° North  Level Estimated
10:48PM 42.9868 19.0472 342° North  Level Estimated
10:49PM 43.0740 19.0088 342° North  Level Estimated
10:50PM 43.1613 18.9703 342° North  Level Estimated
10:51PM 43.2484 18.9316 342° North  Level Estimated
10:52PM 43.3356 18.8929 342° North  Level Estimated
10:53PM 43.4228 18.8540 342° North  Level Estimated
10:54PM 43.5099 18.8151 342° North  Level Estimated
10:55PM 43.5971 18.7760 342° North  Level Estimated
10:56PM 43.6842 18.7368 342° North  Level Estimated
10:57PM 43.7713 18.6975 342° North  Level Estimated
10:58PM 43.8584 18.6581 342° North  Level Estimated
10:59PM 43.9455 18.6186 342° North  Level Estimated
11:00PM 44.0326 18.5789 342° North  Level Estimated
11:01PM 44.1196 18.5392 342° North  Level Estimated
11:02PM 44.2067 18.4993 342° North  Level Estimated
11:03PM 44.2937 18.4593 342° North  Level Estimated
11:04PM 44.3807 18.4191 342° North  Level Estimated
11:05PM 44.4677 18.3789 342° North  Level Estimated
11:06PM 44.5547 18.3386 342° North  Level Estimated
11:07PM 44.6417 18.2981 342° North  Level Estimated
11:08PM 44.7287 18.2575 342° North  Level Estimated
11:09PM 44.8156 18.2167 342° North  Level Estimated
11:10PM 44.9025 18.1759 342° North  Level Estimated
11:11PM 44.9895 18.1349 342° North  Level Estimated
11:12PM 45.0764 18.0938 342° North  Level Estimated
11:13PM 45.1633 18.0526 342° North  Level Estimated
11:14PM 45.2501 18.0112 341° North  Level Estimated
11:15PM 45.3370 17.9698 341° North  Level Estimated
11:16PM 45.4238 17.9282 341° North  Level Estimated
11:17PM 45.5107 17.8864 341° North  Level Estimated
11:18PM 45.5975 17.8446 341° North  Level Estimated
11:19PM 45.6843 17.8026 341° North  Level Estimated
11:20PM 45.7710 17.7605 341° North  Level Estimated
11:21PM 45.8578 17.7182 341° North  Level Estimated
11:22PM 45.9446 17.6758 341° North  Level Estimated
11:23PM 46.0313 17.6333 341° North  Level Estimated
11:24PM 46.1180 17.5907 341° North  Level Estimated
11:25PM 46.2047 17.5479 341° North  Level Estimated
11:26PM 46.2914 17.5050 341° North  Level Estimated
11:27PM 46.3781 17.4619 341° North  Level Estimated
11:28PM 46.4647 17.4187 341° North  Level Estimated
11:29PM 46.5514 17.3754 341° North  Level Estimated
11:30PM 46.6380 17.3319 341° North  Level Estimated
11:31PM 46.7246 17.2883 341° North  Level Estimated
11:32PM 46.8112 17.2446 341° North  Level Estimated
11:33PM 46.8978 17.2007 341° North  Level Estimated
11:34PM 46.9843 17.1567 341° North  Level Estimated
11:35PM 47.0709 17.1125 341° North  Level Estimated
11:36PM 47.1574 17.0682 341° North  Level Estimated
11:37PM 47.2439 17.0237 341° North  Level Estimated
11:38PM 47.3304 16.9791 341° North  Level Estimated
11:39PM 47.4169 16.9343 341° North  Level Estimated
11:40PM 47.5033 16.8895 341° North  Level Estimated
11:41PM 47.5897 16.8444 341° North  Level Estimated
11:42PM 47.6762 16.7992 341° North  Level Estimated
11:43PM 47.7626 16.7539 341° North  Level Estimated
11:44PM 47.8489 16.7083 341° North  Level Estimated
11:45PM 47.9353 16.6627 341° North  Level Estimated
11:46PM 48.0217 16.6169 340° North  Level Estimated
11:47PM 48.1080 16.5709 340° North  Level Estimated
11:48PM 48.1103 16.5697 340° North  Level Estimated
11:49PM 48.1103 16.5697 146° Southeast  Level Estimated